createdAt,value
2022-11-24T00:01:06.570Z,18.25
2022-11-24T00:03:33.519Z,21.58
2022-11-24T00:06:11.897Z,22.48
2022-11-24T00:08:39.998Z,26.92
2022-11-24T00:11:12.946Z,29.70
2022-11-24T00:13:39.671Z,25.20
2022-11-24T00:16:24.515Z,17.40
2022-11-24T00:18:53.117Z,28.48
2022-11-24T00:21:20.755Z,30.63
2022-11-24T00:23:48.838Z,24.77
2022-11-24T00:26:16.533Z,26.27
2022-11-24T00:28:43.965Z,24.17
2022-11-24T00:31:22.430Z,25.73
2022-11-24T00:33:50.882Z,24.48
2022-11-24T00:36:19.152Z,21.67
2022-11-24T00:38:46.577Z,25.15
2022-11-24T00:41:13.688Z,22.42
2022-11-24T00:43:40.352Z,25.92
2022-11-24T00:46:07.077Z,22.95
2022-11-24T00:48:33.760Z,26.27
2022-11-24T00:51:06.012Z,26.30
2022-11-24T00:53:32.753Z,27.55
2022-11-24T00:55:59.542Z,22.85
2022-11-24T00:58:26.359Z,27.33
2022-11-24T01:00:53.517Z,25.27
2022-11-24T01:03:21.188Z,25.38
2022-11-24T01:05:47.761Z,28.30
2022-11-24T01:08:14.504Z,29.08
2022-11-24T01:10:41.094Z,21.95
2022-11-24T01:13:07.682Z,24.40
2022-11-24T01:15:36.417Z,22.38
2022-11-24T01:18:04.115Z,34.33
2022-11-24T01:20:31.408Z,29.20
2022-11-24T01:22:58.085Z,32.45
2022-11-24T01:25:24.678Z,27.80
2022-11-24T01:27:51.421Z,34.03
2022-11-24T01:30:18.121Z,30.48
2022-11-24T01:32:44.724Z,30.27
2022-11-24T01:35:11.254Z,26.83
2022-11-24T01:37:37.810Z,28.75
2022-11-24T01:40:05.833Z,34.35
2022-11-24T01:42:50.682Z,31.13
2022-11-24T01:45:40.748Z,32.25
2022-11-24T01:48:14.613Z,27.80
2022-11-24T01:50:41.779Z,38.97
2022-11-24T01:53:08.993Z,31.60
2022-11-24T01:55:39.284Z,34.60
2022-11-24T01:58:15.339Z,33.67
2022-11-24T02:00:45.277Z,34.10
2022-11-24T02:03:18.165Z,33.10
2022-11-24T02:06:08.869Z,45.97
2022-11-24T02:08:40.744Z,31.70
2022-11-24T02:11:07.381Z,29.63
2022-11-24T02:13:37.236Z,32.50
2022-11-24T02:16:06.671Z,32.92
2022-11-24T02:18:33.497Z,40.10
2022-11-24T02:21:00.702Z,30.27
2022-11-24T02:24:01.017Z,38.38
2022-11-24T02:26:30.198Z,30.85
2022-11-24T02:28:57.048Z,35.40
2022-11-24T02:31:23.674Z,27.75
2022-11-24T02:33:50.981Z,30.58
2022-11-24T02:36:17.593Z,34.72
2022-11-24T02:38:44.197Z,30.00
2022-11-24T02:41:15.067Z,34.05
2022-11-24T02:43:47.041Z,30.45
2022-11-24T02:46:13.670Z,31.52
2022-11-24T02:48:40.401Z,41.33
2022-11-24T02:51:06.974Z,31.80
2022-11-24T02:53:33.711Z,37.47
2022-11-24T02:56:00.276Z,31.83
2022-11-24T02:58:26.812Z,38.25
2022-11-24T03:00:54.490Z,35.45
2022-11-24T03:03:21.710Z,35.95
2022-11-24T03:05:48.278Z,32.40
2022-11-24T03:08:14.813Z,33.72
2022-11-24T03:10:41.388Z,35.58
2022-11-24T03:13:08.258Z,35.40
2022-11-24T03:15:35.886Z,38.78
2022-11-24T03:18:03.245Z,34.97
2022-11-24T03:20:30.074Z,33.30
2022-11-24T03:22:56.908Z,32.28
2022-11-24T03:25:23.709Z,31.92
2022-11-24T03:27:50.330Z,31.08
2022-11-24T03:30:16.930Z,33.75
2022-11-24T03:32:43.593Z,36.45
2022-11-24T03:35:10.149Z,33.22
2022-11-24T03:37:37.292Z,27.92
2022-11-24T03:40:04.339Z,30.98
2022-11-24T03:42:30.938Z,37.88
2022-11-24T03:44:57.476Z,30.63
2022-11-24T03:47:24.062Z,39.35
2022-11-24T03:49:50.576Z,30.23
2022-11-24T03:52:17.092Z,34.95
2022-11-24T03:54:43.855Z,32.28
2022-11-24T03:57:10.463Z,33.78
2022-11-24T03:59:36.994Z,24.48
2022-11-24T04:02:03.682Z,31.30
2022-11-24T04:04:30.423Z,27.02
2022-11-24T04:06:57.015Z,22.20
2022-11-24T04:09:23.588Z,29.55
2022-11-24T04:12:08.352Z,20.58
2022-11-24T04:14:35.209Z,22.38
2022-11-24T04:17:04.257Z,22.40
2022-11-24T04:19:31.027Z,24.60
2022-11-24T04:21:57.567Z,21.15
2022-11-24T04:24:24.142Z,24.08
2022-11-24T04:26:50.665Z,28.70
2022-11-24T04:29:17.217Z,26.20
2022-11-24T04:31:43.818Z,21.08
2022-11-24T04:34:11.299Z,19.13
2022-11-24T04:36:37.921Z,18.90
2022-11-24T04:39:24.477Z,28.27
2022-11-24T04:41:50.996Z,25.92
2022-11-24T04:44:17.587Z,18.42
2022-11-24T04:46:44.360Z,22.35
2022-11-24T04:49:11.812Z,15.70
2022-11-24T04:51:39.804Z,14.45
2022-11-24T04:54:13.624Z,16.17
2022-11-24T04:56:41.793Z,20.42
2022-11-24T04:59:12.256Z,15.63
2022-11-24T05:01:38.883Z,15.63
2022-11-24T05:04:05.437Z,20.50
2022-11-24T05:06:33.238Z,21.63
2022-11-24T05:08:59.786Z,17.27
2022-11-24T05:11:26.306Z,21.40
2022-11-24T05:13:53.266Z,12.35
2022-11-24T05:16:20.139Z,18.17
2022-11-24T05:18:46.769Z,17.33
2022-11-24T05:21:13.624Z,18.13
2022-11-24T05:23:40.261Z,15.93
2022-11-24T05:26:06.905Z,9.52
2022-11-24T05:28:33.776Z,10.65
2022-11-24T05:31:01.908Z,11.85
2022-11-24T05:33:30.143Z,9.52
2022-11-24T05:36:02.186Z,14.85
2022-11-24T05:38:30.187Z,11.23
2022-11-24T05:41:04.474Z,9.82
2022-11-24T05:43:31.562Z,12.07
2022-11-24T05:46:01.901Z,8.37
2022-11-24T05:48:28.531Z,14.93
2022-11-24T05:50:56.776Z,11.13
2022-11-24T05:53:24.246Z,16.53
2022-11-24T05:55:51.950Z,9.43
2022-11-24T05:58:21.705Z,10.73
2022-11-24T06:00:48.600Z,16.33
2022-11-24T06:03:15.423Z,17.17
2022-11-24T06:05:46.896Z,10.70
2022-11-24T06:08:14.238Z,16.50
2022-11-24T06:10:40.822Z,14.33
2022-11-24T06:13:07.916Z,17.30
2022-11-24T06:15:35.189Z,20.10
2022-11-24T06:18:01.809Z,15.80
2022-11-24T06:20:32.426Z,17.10
2022-11-24T06:23:00.215Z,17.60
2022-11-24T06:25:27.758Z,18.33
2022-11-24T06:27:54.356Z,21.47
2022-11-24T06:30:20.865Z,20.15
2022-11-24T06:32:49.914Z,18.90
2022-11-24T06:35:17.325Z,18.73
2022-11-24T06:37:43.921Z,14.40
2022-11-24T06:40:10.845Z,14.85
2022-11-24T06:42:37.698Z,11.25
2022-11-24T06:45:09.082Z,14.30
2022-11-24T06:47:36.706Z,15.13
2022-11-24T06:50:03.803Z,14.63
2022-11-24T06:52:30.651Z,17.90
2022-11-24T06:54:57.312Z,13.68
2022-11-24T06:57:24.019Z,10.48
2022-11-24T06:59:50.658Z,23.73
2022-11-24T07:02:17.202Z,14.95
2022-11-24T07:04:43.771Z,12.45
2022-11-24T07:07:10.397Z,12.90
2022-11-24T07:09:37.047Z,15.65
2022-11-24T07:12:04.815Z,14.57
2022-11-24T07:14:32.170Z,13.90
2022-11-24T07:16:58.907Z,14.00
2022-11-24T07:19:25.513Z,14.52
2022-11-24T07:21:52.138Z,11.83
2022-11-24T07:24:18.899Z,11.65
2022-11-24T07:26:45.602Z,18.00
2022-11-24T07:29:12.183Z,10.90
2022-11-24T07:31:39.228Z,10.77
2022-11-24T07:34:06.233Z,14.98
2022-11-24T07:36:32.817Z,12.68
2022-11-24T07:38:59.646Z,10.90
2022-11-24T07:41:26.155Z,12.93
2022-11-24T07:43:55.605Z,17.30
2022-11-24T07:46:22.238Z,12.38
2022-11-24T07:48:48.847Z,10.73
2022-11-24T07:51:16.092Z,16.52
2022-11-24T07:53:42.840Z,9.65
2022-11-24T07:56:09.539Z,10.50
2022-11-24T07:58:37.466Z,13.98
2022-11-24T08:01:11.520Z,12.77
2022-11-24T08:03:38.314Z,10.70
2022-11-24T08:06:23.606Z,11.63
2022-11-24T08:08:51.008Z,10.87
2022-11-24T08:11:18.307Z,17.07
2022-11-24T08:13:45.250Z,15.60
2022-11-24T08:16:16.861Z,10.63
2022-11-24T08:18:44.734Z,16.73
2022-11-24T08:21:14.908Z,10.27
2022-11-24T08:23:42.085Z,14.40
2022-11-24T08:26:13.670Z,16.73
2022-11-24T08:28:40.235Z,9.95
2022-11-24T08:31:16.080Z,16.63
2022-11-24T08:33:42.713Z,11.00
2022-11-24T08:36:17.825Z,15.35
2022-11-24T08:38:45.409Z,11.60
2022-11-24T08:41:14.648Z,10.98
2022-11-24T08:43:42.261Z,11.20
2022-11-24T08:46:12.565Z,11.93
2022-11-24T08:48:39.212Z,15.90
2022-11-24T08:51:18.424Z,14.25
2022-11-24T08:53:45.068Z,12.10
2022-11-24T08:56:12.993Z,14.48
2022-11-24T08:58:40.189Z,10.90
2022-11-24T09:01:09.730Z,8.18
2022-11-24T09:03:37.725Z,11.52
2022-11-24T09:06:05.483Z,12.52
2022-11-24T09:08:33.330Z,12.88
2022-11-24T09:11:05.540Z,14.77
2022-11-24T09:13:32.573Z,13.05
2022-11-24T09:16:04.512Z,11.85
2022-11-24T09:18:31.199Z,18.50
2022-11-24T09:21:14.549Z,16.92
2022-11-24T09:23:42.520Z,10.50
2022-11-24T09:26:11.850Z,12.15
2022-11-24T09:28:38.983Z,14.40
2022-11-24T09:31:08.137Z,13.85
2022-11-24T09:33:35.994Z,11.52
2022-11-24T09:36:02.809Z,13.05
2022-11-24T09:38:29.867Z,12.25
2022-11-24T09:41:06.035Z,17.13
2022-11-24T09:43:45.904Z,16.90
2022-11-24T09:46:23.371Z,12.13
2022-11-24T09:48:54.977Z,9.73
2022-11-24T09:51:25.966Z,13.90
2022-11-24T09:53:59.930Z,18.83
2022-11-24T09:56:30.894Z,13.63
2022-11-24T09:59:02.877Z,12.20
2022-11-24T10:01:32.496Z,11.80
2022-11-24T10:04:05.598Z,14.35
2022-11-24T10:06:34.834Z,16.02
2022-11-24T10:09:19.792Z,17.13
2022-11-24T10:12:17.138Z,15.63
2022-11-24T10:15:15.706Z,15.77
2022-11-24T10:18:16.969Z,11.95
2022-11-24T10:21:22.403Z,11.80
2022-11-24T10:24:16.469Z,12.38
2022-11-24T10:27:00.554Z,11.65
2022-11-24T10:29:40.961Z,14.57
2022-11-24T10:32:24.350Z,10.80
2022-11-24T10:34:51.566Z,13.45
2022-11-24T10:37:26.125Z,11.70
2022-11-24T10:40:04.040Z,15.60
2022-11-24T10:42:37.041Z,14.10
2022-11-24T10:45:14.462Z,12.93
2022-11-24T10:47:42.762Z,14.18
2022-11-24T10:50:23.540Z,13.23
2022-11-24T10:53:09.031Z,15.65
2022-11-24T10:55:54.081Z,10.02
2022-11-24T10:58:24.073Z,16.80
2022-11-24T11:00:50.781Z,12.15
2022-11-24T11:03:31.786Z,10.23
2022-11-24T11:06:10.302Z,12.40
2022-11-24T11:08:36.961Z,14.90
2022-11-24T11:11:29.191Z,15.13
2022-11-24T11:14:05.010Z,16.35
2022-11-24T11:16:39.361Z,14.07
2022-11-24T11:19:58.472Z,13.25
2022-11-24T11:22:37.262Z,18.63
2022-11-24T11:25:16.573Z,12.50
2022-11-24T11:27:43.262Z,21.00
2022-11-24T11:35:49.347Z,16.02
2022-11-24T11:38:16.000Z,16.13
2022-11-24T11:40:43.873Z,14.13
2022-11-24T11:43:24.898Z,13.02
2022-11-24T11:46:10.085Z,16.45
2022-11-24T11:48:43.714Z,14.73
2022-11-24T11:51:25.877Z,14.48
2022-11-24T11:54:20.175Z,14.82
2022-11-24T11:56:51.028Z,13.52
2022-11-24T11:59:36.598Z,10.35
2022-11-24T12:02:37.192Z,10.90
2022-11-24T12:05:27.430Z,13.32
2022-11-24T12:08:21.041Z,13.23
2022-11-24T12:10:48.075Z,11.73
2022-11-24T12:13:14.644Z,14.30
2022-11-24T12:15:44.603Z,16.45
2022-11-24T12:18:55.209Z,12.32
2022-11-24T12:21:26.216Z,11.00
2022-11-24T12:24:10.938Z,15.98
2022-11-24T12:26:53.597Z,12.13
2022-11-24T12:29:32.624Z,10.82
2022-11-24T12:32:19.952Z,13.18
2022-11-24T12:34:56.135Z,14.02
2022-11-24T12:37:47.319Z,12.70
2022-11-24T12:40:46.578Z,12.43
2022-11-24T12:43:35.557Z,15.02
2022-11-24T12:46:14.009Z,11.13
2022-11-24T12:49:15.346Z,10.38
2022-11-24T12:51:46.122Z,10.55
2022-11-24T12:54:15.673Z,14.45
2022-11-24T12:57:06.574Z,17.95
2022-11-24T13:00:01.865Z,14.40
2022-11-24T13:02:49.898Z,16.52
2022-11-24T13:05:46.498Z,14.38
2022-11-24T13:08:14.361Z,14.55
2022-11-24T13:10:57.871Z,16.48
2022-11-24T13:13:29.861Z,17.65
2022-11-24T13:16:20.617Z,10.50
2022-11-24T13:18:52.738Z,13.95
2022-11-24T13:21:31.153Z,12.88
2022-11-24T13:24:04.325Z,18.30
2022-11-24T13:26:53.072Z,14.38
2022-11-24T13:29:28.794Z,10.48
2022-11-24T13:31:55.979Z,10.68
2022-11-24T13:34:45.984Z,11.23
2022-11-24T13:37:33.747Z,13.15
2022-11-24T13:40:13.371Z,9.98
2022-11-24T13:42:55.165Z,11.88
2022-11-24T13:45:41.092Z,9.57
2022-11-24T13:48:20.381Z,13.82
2022-11-24T13:50:50.424Z,14.48
2022-11-24T13:53:29.409Z,14.30
2022-11-24T13:56:15.080Z,12.88
2022-11-24T13:58:57.454Z,16.80
2022-11-24T14:01:32.712Z,14.60
2022-11-24T14:04:29.797Z,13.23
2022-11-24T14:06:55.040Z,16.05
2022-11-24T14:09:44.788Z,17.95
2022-11-24T14:12:20.356Z,13.80
2022-11-24T14:14:49.272Z,15.68
2022-11-24T14:17:24.399Z,10.90
2022-11-24T14:19:53.649Z,16.20
2022-11-24T14:22:42.262Z,14.32
2022-11-24T14:25:25.355Z,13.50
2022-11-24T14:27:52.038Z,18.05
2022-11-24T14:30:21.694Z,12.07
2022-11-24T14:32:58.992Z,18.13
2022-11-24T14:35:25.580Z,14.05
2022-11-24T14:37:52.336Z,11.75
2022-11-24T14:40:41.651Z,12.52
2022-11-24T14:43:32.329Z,10.32
2022-11-24T14:46:06.016Z,14.05
2022-11-24T14:48:46.916Z,13.57
2022-11-24T14:51:22.940Z,13.63
2022-11-24T14:53:53.518Z,10.20
2022-11-24T14:56:29.266Z,12.70
2022-11-24T14:58:57.482Z,16.77
2022-11-24T15:01:27.491Z,12.50
2022-11-24T15:04:26.528Z,13.93
2022-11-24T15:07:14.048Z,15.40
2022-11-24T15:09:53.312Z,13.15
2022-11-24T15:12:39.655Z,19.73
2022-11-24T15:15:34.118Z,15.70
2022-11-24T15:18:02.635Z,16.08
2022-11-24T15:20:35.349Z,16.75
2022-11-24T15:23:25.045Z,13.75
2022-11-24T15:25:53.495Z,13.70
2022-11-24T15:28:25.517Z,14.15
2022-11-24T15:30:59.507Z,8.70
2022-11-24T15:33:26.793Z,13.85
2022-11-24T15:35:53.844Z,11.73
2022-11-24T15:38:21.252Z,15.23
2022-11-24T15:40:50.316Z,14.77
2022-11-24T15:43:32.158Z,12.57
2022-11-24T15:45:59.697Z,13.68
2022-11-24T15:48:26.964Z,11.93
2022-11-24T15:50:55.297Z,12.73
2022-11-24T15:53:27.511Z,11.60
2022-11-24T15:55:56.387Z,10.05
2022-11-24T15:58:23.685Z,8.48
2022-11-24T16:00:53.402Z,17.50
2022-11-24T16:06:16.732Z,14.20
2022-11-24T16:08:46.228Z,10.95
2022-11-24T16:11:12.827Z,13.52
2022-11-24T16:13:39.954Z,20.05
2022-11-24T16:16:06.858Z,17.67
2022-11-24T16:18:35.386Z,12.93
2022-11-24T16:21:02.011Z,16.67
2022-11-24T16:23:28.589Z,14.35
2022-11-24T16:25:55.273Z,12.25
2022-11-24T16:28:21.872Z,13.48
2022-11-24T16:30:49.884Z,17.40
2022-11-24T16:33:16.848Z,11.88
2022-11-24T16:35:46.334Z,14.40
2022-11-24T16:38:17.275Z,11.75
2022-11-24T16:40:44.009Z,15.07
2022-11-24T16:43:10.596Z,16.02
2022-11-24T16:45:39.682Z,15.55
2022-11-24T16:48:10.369Z,13.18
2022-11-24T16:50:37.720Z,11.43
2022-11-24T16:53:04.284Z,18.73
2022-11-24T16:55:30.802Z,14.05
2022-11-24T16:57:57.335Z,17.83
2022-11-24T17:00:23.890Z,18.98
2022-11-24T17:02:50.602Z,18.52
2022-11-24T17:05:17.331Z,13.50
2022-11-24T17:07:43.956Z,13.50
2022-11-24T17:10:10.658Z,17.70
2022-11-24T17:12:37.678Z,11.82
2022-11-24T17:15:39.171Z,23.15
2022-11-24T17:18:22.394Z,16.10
2022-11-24T17:20:38.844Z,10.50
2022-11-24T17:23:05.493Z,16.77
2022-11-24T17:25:33.012Z,23.35
2022-11-24T17:27:59.533Z,14.93
2022-11-24T17:30:26.069Z,18.10
2022-11-24T17:32:56.734Z,18.15
2022-11-24T17:35:23.730Z,16.08
2022-11-24T17:37:50.483Z,20.08
2022-11-24T17:40:34.536Z,23.70
2022-11-24T17:43:01.602Z,19.90
2022-11-24T17:45:29.582Z,21.73
2022-11-24T17:47:58.479Z,16.67
2022-11-24T17:50:26.308Z,18.97
2022-11-24T17:52:54.247Z,18.43
2022-11-24T17:55:21.199Z,27.40
2022-11-24T17:57:47.773Z,22.80
2022-11-24T18:00:14.847Z,20.77
2022-11-24T18:02:41.426Z,23.90
2022-11-24T18:05:08.417Z,28.10
2022-11-24T18:07:37.809Z,21.97
2022-11-24T18:10:04.882Z,18.90
2022-11-24T18:12:32.975Z,22.33
2022-11-24T18:15:00.004Z,29.75
2022-11-24T18:17:26.670Z,21.60
2022-11-24T18:19:53.338Z,26.95
2022-11-24T18:22:36.734Z,24.58
2022-11-24T18:25:07.108Z,23.77
2022-11-24T18:27:33.655Z,23.40
2022-11-24T18:30:00.245Z,23.90
2022-11-24T18:32:26.996Z,24.63
2022-11-24T18:34:54.131Z,25.03
2022-11-24T18:37:20.732Z,24.87
2022-11-24T18:39:47.315Z,26.90
2022-11-24T18:42:14.001Z,17.75
2022-11-24T18:44:42.472Z,20.73
2022-11-24T18:47:09.046Z,16.50
2022-11-24T18:49:35.583Z,22.40
2022-11-24T18:52:02.234Z,22.38
2022-11-24T18:54:28.893Z,22.57
2022-11-24T18:57:00.198Z,18.47
2022-11-24T18:59:29.683Z,18.77
2022-11-24T19:01:58.008Z,30.67
2022-11-24T19:04:26.207Z,26.90
2022-11-24T19:06:52.923Z,22.40
2022-11-24T19:09:22.506Z,28.35
2022-11-24T19:11:49.250Z,18.97
2022-11-24T19:14:17.877Z,23.80
2022-11-24T19:16:46.314Z,25.70
2022-11-24T19:19:13.024Z,19.27
2022-11-24T19:21:40.835Z,25.63
2022-11-24T19:24:11.966Z,25.07
2022-11-24T19:26:39.678Z,26.93
2022-11-24T19:29:07.490Z,24.17
2022-11-24T19:31:35.351Z,24.77
2022-11-24T19:34:03.397Z,29.07
2022-11-24T19:36:30.272Z,23.93
2022-11-24T19:38:58.448Z,25.77
2022-11-24T19:41:30.102Z,24.50
2022-11-24T19:43:58.532Z,21.33
2022-11-24T19:46:27.777Z,30.37
2022-11-24T19:48:59.255Z,26.50
2022-11-24T19:51:30.780Z,25.30
2022-11-24T19:53:57.433Z,21.30
2022-11-24T19:56:27.424Z,24.47
2022-11-24T19:58:55.391Z,23.03
2022-11-24T20:01:28.100Z,24.00
2022-11-24T20:03:59.322Z,32.20
2022-11-24T20:06:31.469Z,24.17
2022-11-24T20:09:00.514Z,27.75
2022-11-24T20:11:28.248Z,30.27
2022-11-24T20:13:55.164Z,33.27
2022-11-24T20:16:26.664Z,26.60
2022-11-24T20:18:55.241Z,27.20
2022-11-24T20:21:24.933Z,25.20
2022-11-24T20:23:57.214Z,18.30
2022-11-24T20:26:26.553Z,22.05
2022-11-24T20:28:54.616Z,29.85
2022-11-24T20:31:31.119Z,23.93
2022-11-24T20:33:59.411Z,24.67
2022-11-24T20:36:27.794Z,24.90
2022-11-24T20:38:54.908Z,21.55
2022-11-24T20:41:27.125Z,29.57
2022-11-24T20:43:55.414Z,22.73
2022-11-24T20:46:27.362Z,21.77
2022-11-24T20:48:55.385Z,24.63
2022-11-24T20:51:24.681Z,25.33
2022-11-24T20:53:53.904Z,27.40
2022-11-24T20:56:22.949Z,25.50
2022-11-24T20:58:50.455Z,31.17
2022-11-24T21:01:19.926Z,22.37
2022-11-24T21:03:48.128Z,28.90
2022-11-24T21:06:14.912Z,27.20
2022-11-24T21:08:42.561Z,18.23
2022-11-24T21:11:11.825Z,23.52
2022-11-24T21:13:40.190Z,24.27
2022-11-24T21:16:23.404Z,30.13
2022-11-24T21:18:52.419Z,19.27
2022-11-24T21:21:23.641Z,22.48
2022-11-24T21:23:50.891Z,27.77
2022-11-24T21:26:19.084Z,26.88
2022-11-24T21:28:47.393Z,31.30
2022-11-24T21:31:20.394Z,22.27
2022-11-24T21:33:54.719Z,27.13
2022-11-24T21:36:26.476Z,30.58
2022-11-24T21:38:56.331Z,22.43
2022-11-24T21:41:24.771Z,21.88
2022-11-24T21:43:52.851Z,22.67
2022-11-24T21:46:19.498Z,22.53
2022-11-24T21:48:46.100Z,25.17
2022-11-24T21:51:15.530Z,21.42
2022-11-24T21:53:43.401Z,24.52
2022-11-24T21:56:15.655Z,24.80
2022-11-24T21:58:47.391Z,20.25
2022-11-24T22:01:15.010Z,32.05
2022-11-24T22:03:41.613Z,25.98
2022-11-24T22:06:08.648Z,26.60
2022-11-24T22:08:35.213Z,23.70
2022-11-24T22:11:06.451Z,21.67
2022-11-24T22:13:33.907Z,30.52
2022-11-24T22:16:05.618Z,32.88
2022-11-24T22:18:34.324Z,30.38
2022-11-24T22:21:05.084Z,31.17
2022-11-24T22:23:33.159Z,24.75
2022-11-24T22:26:17.948Z,22.58
2022-11-24T22:28:45.417Z,31.05
2022-11-24T22:31:16.654Z,19.75
2022-11-24T22:33:46.631Z,20.23
2022-11-24T22:36:14.384Z,23.98
2022-11-24T22:38:41.582Z,30.80
2022-11-24T22:41:10.869Z,26.98
2022-11-24T22:43:38.775Z,22.38
2022-11-24T22:46:30.383Z,23.10
2022-11-24T22:48:59.703Z,21.45
2022-11-24T22:51:38.151Z,25.25
2022-11-24T22:54:05.645Z,21.65
2022-11-24T22:56:33.553Z,17.27
2022-11-24T22:59:01.477Z,21.85
2022-11-24T23:01:29.674Z,19.17
2022-11-24T23:03:56.360Z,24.58
2022-11-24T23:06:28.481Z,27.52
2022-11-24T23:08:56.581Z,22.80
2022-11-24T23:11:32.590Z,24.77
2022-11-24T23:14:02.035Z,23.80
2022-11-24T23:16:29.373Z,29.30
2022-11-24T23:18:56.119Z,25.33
2022-11-24T23:21:26.210Z,29.40
2022-11-24T23:23:53.345Z,28.95
2022-11-24T23:26:28.384Z,32.75
2022-11-24T23:28:55.415Z,25.52
2022-11-24T23:31:27.446Z,24.05
2022-11-24T23:33:55.194Z,24.13
2022-11-24T23:36:22.621Z,22.52
2022-11-24T23:38:49.629Z,20.95
2022-11-24T23:41:19.497Z,19.42
2022-11-24T23:43:47.360Z,21.90
2022-11-24T23:46:20.556Z,35.60
2022-11-24T23:48:48.176Z,18.85
2022-11-24T23:51:22.132Z,16.73
2022-11-24T23:53:49.112Z,29.10
2022-11-24T23:56:18.533Z,35.08
2022-11-24T23:58:45.820Z,39.22
